createdAt,value
2022-08-16T00:01:26.504Z,20.30
2022-08-16T00:03:57.255Z,20.34
2022-08-16T00:06:25.622Z,20.39
2022-08-16T00:08:53.929Z,20.34
2022-08-16T00:11:22.650Z,20.25
2022-08-16T00:13:53.687Z,20.21
2022-08-16T00:17:06.680Z,20.22
2022-08-16T00:19:22.568Z,20.18
2022-08-16T00:22:01.035Z,20.16
2022-08-16T00:24:33.155Z,20.07
2022-08-16T00:27:04.088Z,19.98
2022-08-16T00:29:32.965Z,19.98
2022-08-16T00:32:05.869Z,19.94
2022-08-16T00:34:44.139Z,19.99
2022-08-16T00:37:58.895Z,20.05
2022-08-16T00:40:34.980Z,20.04
2022-08-16T00:43:20.394Z,20.00
2022-08-16T00:46:00.940Z,20.04
2022-08-16T00:48:48.561Z,19.96
2022-08-16T00:51:20.315Z,19.98
2022-08-16T00:53:51.643Z,19.97
2022-08-16T00:56:56.171Z,19.91
2022-08-16T00:59:15.197Z,19.86
2022-08-16T01:01:45.308Z,19.84
2022-08-16T01:04:30.318Z,19.83
2022-08-16T01:07:02.801Z,19.63
2022-08-16T01:09:38.579Z,19.63
2022-08-16T01:12:12.075Z,19.65
2022-08-16T01:14:57.537Z,19.67
2022-08-16T01:17:28.773Z,19.67
2022-08-16T01:20:24.072Z,19.69
2022-08-16T01:23:22.389Z,19.65
2022-08-16T01:26:00.227Z,19.60
2022-08-16T01:28:45.306Z,19.57
2022-08-16T01:31:16.599Z,19.48
2022-08-16T01:33:46.100Z,19.51
2022-08-16T01:36:19.132Z,19.50
2022-08-16T01:38:57.773Z,19.57
2022-08-16T01:41:30.709Z,19.59
2022-08-16T01:44:02.944Z,19.59
2022-08-16T01:46:45.013Z,19.56
2022-08-16T01:50:40.607Z,19.54
2022-08-16T01:52:29.385Z,19.56
2022-08-16T01:55:05.664Z,19.55
2022-08-16T01:57:35.751Z,19.55
2022-08-16T02:00:19.334Z,19.56
2022-08-16T02:02:52.303Z,19.56
2022-08-16T02:05:23.493Z,19.54
2022-08-16T02:07:52.352Z,19.50
2022-08-16T02:10:22.323Z,19.48
2022-08-16T02:12:59.856Z,19.49
2022-08-16T02:15:35.622Z,19.48
2022-08-16T02:18:13.041Z,19.46
2022-08-16T02:20:46.520Z,19.44
2022-08-16T02:23:17.326Z,19.41
2022-08-16T02:25:52.485Z,19.39
2022-08-16T02:28:24.401Z,19.36
2022-08-16T02:30:58.229Z,19.33
2022-08-16T02:33:44.015Z,19.32
2022-08-16T02:36:47.567Z,19.28
2022-08-16T02:39:10.957Z,19.20
2022-08-16T02:41:42.862Z,19.17
2022-08-16T02:44:13.604Z,19.16
2022-08-16T02:46:49.830Z,19.16
2022-08-16T02:49:58.459Z,19.19
2022-08-16T02:52:24.415Z,19.22
2022-08-16T02:55:02.019Z,19.24
2022-08-16T02:57:33.470Z,19.25
2022-08-16T03:00:34.007Z,19.19
2022-08-16T03:02:56.522Z,19.10
2022-08-16T03:05:26.030Z,19.05
2022-08-16T03:07:59.955Z,19.04
2022-08-16T03:10:33.353Z,19.05
2022-08-16T03:13:03.406Z,19.08
2022-08-16T03:15:32.385Z,19.08
2022-08-16T03:18:02.290Z,19.06
2022-08-16T03:20:34.326Z,19.04
2022-08-16T03:23:05.708Z,19.03
2022-08-16T03:25:43.996Z,19.05
2022-08-16T03:28:17.176Z,19.06
2022-08-16T03:30:48.580Z,19.07
2022-08-16T03:33:17.982Z,19.04
2022-08-16T03:36:30.363Z,19.02
2022-08-16T03:38:53.890Z,19.01
2022-08-16T03:41:25.231Z,18.97
2022-08-16T03:43:59.473Z,18.94
2022-08-16T03:46:47.799Z,18.93
2022-08-16T03:49:36.722Z,18.97
2022-08-16T03:52:08.275Z,18.97
2022-08-16T03:54:38.070Z,18.91
2022-08-16T03:57:06.871Z,18.93
2022-08-16T03:59:40.212Z,18.95
2022-08-16T04:02:22.283Z,18.95
2022-08-16T04:04:56.499Z,18.93
2022-08-16T04:07:26.202Z,18.98
2022-08-16T04:09:54.497Z,19.01
2022-08-16T04:12:54.482Z,19.02
2022-08-16T04:15:16.901Z,18.92
2022-08-16T04:17:57.854Z,18.89
2022-08-16T04:20:34.046Z,18.89
2022-08-16T04:23:10.865Z,18.90
2022-08-16T04:25:42.275Z,18.88
2022-08-16T04:28:29.218Z,18.94
2022-08-16T04:31:04.357Z,18.95
2022-08-16T04:33:38.330Z,19.01
2022-08-16T04:36:20.523Z,18.89
2022-08-16T04:38:49.955Z,18.89
2022-08-16T04:41:18.830Z,18.90
2022-08-16T04:44:01.090Z,18.87
2022-08-16T04:47:01.160Z,18.83
2022-08-16T04:49:17.935Z,18.95
2022-08-16T04:51:53.981Z,19.05
2022-08-16T04:54:23.871Z,19.08
2022-08-16T04:56:52.409Z,19.15
2022-08-16T04:59:22.256Z,19.22
2022-08-16T05:01:58.683Z,19.28
2022-08-16T05:04:30.042Z,19.30
2022-08-16T05:07:02.044Z,19.30
2022-08-16T05:09:49.553Z,19.38
2022-08-16T05:12:22.240Z,19.47
2022-08-16T05:15:02.765Z,19.56
2022-08-16T05:17:36.233Z,19.63
2022-08-16T05:20:38.857Z,19.71
2022-08-16T05:23:00.727Z,19.78
2022-08-16T05:25:41.316Z,19.89
2022-08-16T05:28:18.661Z,20.02
2022-08-16T05:30:53.166Z,20.14
2022-08-16T05:33:25.901Z,20.24
2022-08-16T05:35:57.504Z,20.38
2022-08-16T05:38:39.370Z,20.47
2022-08-16T05:41:13.836Z,20.61
2022-08-16T05:43:46.900Z,20.64
2022-08-16T05:46:29.883Z,20.75
2022-08-16T05:49:09.226Z,20.88
2022-08-16T05:51:41.911Z,20.87
2022-08-16T05:54:14.624Z,21.02
2022-08-16T05:56:49.103Z,21.20
2022-08-16T05:59:19.633Z,21.39
2022-08-16T06:01:51.918Z,21.57
2022-08-16T06:04:35.639Z,21.61
2022-08-16T06:07:08.189Z,21.81
2022-08-16T06:09:43.607Z,22.04
2022-08-16T06:12:26.682Z,22.13
2022-08-16T06:15:01.714Z,22.20
2022-08-16T06:17:41.498Z,22.14
2022-08-16T06:20:34.777Z,22.36
2022-08-16T06:23:16.894Z,22.52
2022-08-16T06:25:58.963Z,22.57
2022-08-16T06:28:36.476Z,22.78
2022-08-16T06:31:12.273Z,22.98
2022-08-16T06:33:45.177Z,23.05
2022-08-16T06:36:16.919Z,23.14
2022-08-16T06:38:57.011Z,23.08
2022-08-16T06:41:45.229Z,23.44
2022-08-16T06:44:34.591Z,23.42
2022-08-16T06:47:06.439Z,23.89
2022-08-16T06:49:37.336Z,24.29
2022-08-16T06:52:05.955Z,25.07
2022-08-16T06:54:54.188Z,25.47
2022-08-16T06:57:22.909Z,26.11
2022-08-16T06:59:53.011Z,27.54
2022-08-16T07:02:32.730Z,29.34
2022-08-16T07:05:03.381Z,31.24
2022-08-16T07:07:50.824Z,30.91
2022-08-16T07:10:25.596Z,29.83
2022-08-16T07:13:03.268Z,29.02
2022-08-16T07:15:35.253Z,28.77
2022-08-16T07:18:05.531Z,29.33
2022-08-16T07:20:47.972Z,29.58
2022-08-16T07:23:18.113Z,29.27
2022-08-16T07:25:52.365Z,28.78
2022-08-16T07:28:24.447Z,28.47
2022-08-16T07:30:59.595Z,28.18
2022-08-16T07:33:53.203Z,28.35
2022-08-16T07:36:28.996Z,29.01
2022-08-16T07:38:59.336Z,29.26
2022-08-16T07:41:31.076Z,28.83
2022-08-16T07:44:15.315Z,28.88
2022-08-16T07:46:48.280Z,28.96
2022-08-16T07:49:25.815Z,28.82
2022-08-16T07:52:01.693Z,28.60
2022-08-16T07:54:48.996Z,28.74
2022-08-16T07:57:24.501Z,29.10
2022-08-16T07:59:57.411Z,29.30
2022-08-16T08:02:27.274Z,30.47
2022-08-16T08:05:00.240Z,31.82
2022-08-16T08:07:32.366Z,32.99
2022-08-16T08:10:04.715Z,32.92
2022-08-16T08:12:35.811Z,32.92
2022-08-16T08:15:09.737Z,33.16
2022-08-16T08:17:42.580Z,33.94
2022-08-16T08:20:28.496Z,34.71
2022-08-16T08:23:00.739Z,33.95
2022-08-16T08:25:53.380Z,32.96
2022-08-16T08:28:20.663Z,32.53
2022-08-16T08:31:00.787Z,32.97
2022-08-16T08:33:32.526Z,32.76
2022-08-16T08:36:07.230Z,32.86
2022-08-16T08:38:45.321Z,32.40
2022-08-16T08:41:20.940Z,33.54
2022-08-16T08:43:57.218Z,32.88
2022-08-16T08:46:28.297Z,33.33
2022-08-16T08:49:08.846Z,32.79
2022-08-16T08:51:41.811Z,32.26
2022-08-16T08:54:18.624Z,31.54
2022-08-16T08:56:46.975Z,31.17
2022-08-16T08:59:26.878Z,30.33
2022-08-16T09:01:58.711Z,30.47
2022-08-16T09:04:35.099Z,30.19
2022-08-16T09:07:06.469Z,30.25
2022-08-16T09:09:41.212Z,30.36
2022-08-16T09:12:35.877Z,30.05
2022-08-16T09:15:15.127Z,30.20
2022-08-16T09:17:51.621Z,29.97
2022-08-16T09:20:25.849Z,28.89
2022-08-16T09:22:56.051Z,29.61
2022-08-16T09:25:40.407Z,30.13
2022-08-16T09:29:13.383Z,30.15
2022-08-16T09:31:16.011Z,30.14
2022-08-16T09:33:45.187Z,30.45
2022-08-16T09:36:31.845Z,30.68
2022-08-16T09:39:03.565Z,30.81
2022-08-16T09:41:32.204Z,30.51
2022-08-16T09:45:11.504Z,29.99
2022-08-16T09:46:57.436Z,30.05
2022-08-16T09:49:37.294Z,29.82
2022-08-16T09:52:05.796Z,30.10
2022-08-16T09:54:34.477Z,30.02
2022-08-16T09:57:03.323Z,29.68
2022-08-16T09:59:38.408Z,29.91
2022-08-16T10:02:25.965Z,29.47
2022-08-16T10:04:59.769Z,29.48
2022-08-16T10:07:44.278Z,29.98
2022-08-16T10:10:19.160Z,30.22
2022-08-16T10:13:11.966Z,30.36
2022-08-16T10:15:43.498Z,30.72
2022-08-16T10:19:01.058Z,30.86
2022-08-16T10:21:16.205Z,31.09
2022-08-16T10:23:45.100Z,30.32
2022-08-16T10:27:18.202Z,29.46
2022-08-16T10:29:04.749Z,29.38
2022-08-16T10:31:44.227Z,30.13
2022-08-16T10:34:30.917Z,30.61
2022-08-16T10:37:02.030Z,30.71
2022-08-16T10:39:40.563Z,30.80
2022-08-16T10:42:13.614Z,29.99
2022-08-16T10:44:42.890Z,30.35
2022-08-16T10:47:22.342Z,30.72
2022-08-16T10:49:50.544Z,30.93
2022-08-16T10:52:20.198Z,31.22
2022-08-16T10:57:37.302Z,31.39
2022-08-16T11:00:21.256Z,31.06
2022-08-16T11:03:00.384Z,30.88
2022-08-16T11:08:35.026Z,30.75
2022-08-16T11:11:11.531Z,30.53
2022-08-16T11:13:59.363Z,30.92
2022-08-16T11:19:22.785Z,31.52
2022-08-16T11:24:44.611Z,32.07
2022-08-16T11:27:23.037Z,32.26
2022-08-16T11:29:55.562Z,32.75
2022-08-16T11:32:32.530Z,33.17
2022-08-16T11:35:13.746Z,32.78
2022-08-16T11:38:23.626Z,32.93
2022-08-16T11:40:44.340Z,33.27
2022-08-16T11:43:16.985Z,32.86
2022-08-16T11:45:53.943Z,33.12
2022-08-16T11:48:25.633Z,33.14
2022-08-16T11:50:54.926Z,33.42
2022-08-16T11:53:24.398Z,33.53
2022-08-16T11:55:56.342Z,33.17
2022-08-16T11:58:26.488Z,32.92
2022-08-16T12:00:57.777Z,32.43
2022-08-16T12:03:34.755Z,32.50
2022-08-16T12:06:25.380Z,31.78
2022-08-16T12:09:00.851Z,31.94
2022-08-16T12:11:33.127Z,32.05
2022-08-16T12:14:04.740Z,32.07
2022-08-16T12:16:35.672Z,32.19
2022-08-16T12:19:07.387Z,31.84
2022-08-16T12:21:58.380Z,32.25
2022-08-16T12:24:29.556Z,33.04
2022-08-16T12:27:00.144Z,33.45
2022-08-16T12:29:30.081Z,33.78
2022-08-16T12:32:37.906Z,33.65
2022-08-16T12:34:52.705Z,33.80
2022-08-16T12:37:24.487Z,33.65
2022-08-16T12:39:58.821Z,33.65
2022-08-16T12:42:35.424Z,33.56
2022-08-16T12:45:12.642Z,33.88
2022-08-16T12:48:29.492Z,34.29
2022-08-16T12:50:49.354Z,33.96
2022-08-16T12:53:20.578Z,33.68
2022-08-16T12:55:50.180Z,33.17
2022-08-16T12:58:49.051Z,33.76
2022-08-16T13:01:12.928Z,34.41
2022-08-16T13:03:44.700Z,34.43
2022-08-16T13:06:20.183Z,34.28
2022-08-16T13:09:16.071Z,34.50
2022-08-16T13:11:58.023Z,35.08
2022-08-16T13:14:33.549Z,35.49
2022-08-16T13:17:06.567Z,35.49
2022-08-16T13:20:05.468Z,35.62
2022-08-16T13:22:25.136Z,35.52
2022-08-16T13:24:55.188Z,35.67
2022-08-16T13:27:59.473Z,35.79
2022-08-16T13:30:35.405Z,35.75
2022-08-16T13:33:13.162Z,35.99
2022-08-16T13:35:56.336Z,36.31
2022-08-16T13:38:37.088Z,36.12
2022-08-16T13:41:10.816Z,35.63
2022-08-16T13:43:39.963Z,35.19
2022-08-16T13:46:09.121Z,35.27
2022-08-16T13:48:44.393Z,34.86
2022-08-16T13:51:17.484Z,35.10
2022-08-16T13:53:59.758Z,35.12
2022-08-16T13:56:38.722Z,35.08
2022-08-16T13:59:19.244Z,35.34
2022-08-16T14:01:59.828Z,35.61
2022-08-16T14:04:34.345Z,34.66
2022-08-16T14:07:04.678Z,33.82
2022-08-16T14:09:34.466Z,33.89
2022-08-16T14:12:09.551Z,34.34
2022-08-16T14:14:38.288Z,33.90
2022-08-16T14:17:09.854Z,33.43
2022-08-16T14:19:45.098Z,33.39
2022-08-16T14:22:30.477Z,33.52
2022-08-16T14:25:03.180Z,33.32
2022-08-16T14:27:35.517Z,33.15
2022-08-16T14:30:10.458Z,33.29
2022-08-16T14:32:46.839Z,33.19
2022-08-16T14:35:36.592Z,32.96
2022-08-16T14:38:13.600Z,32.58
2022-08-16T14:40:52.784Z,32.40
2022-08-16T14:43:29.715Z,32.14
2022-08-16T14:45:59.173Z,32.10
2022-08-16T14:48:27.597Z,32.04
2022-08-16T14:50:56.128Z,31.90
2022-08-16T14:53:26.575Z,31.69
2022-08-16T14:55:55.025Z,31.53
2022-08-16T14:58:34.576Z,31.44
2022-08-16T15:01:05.872Z,31.09
2022-08-16T15:03:37.407Z,31.06
2022-08-16T15:06:07.140Z,30.91
2022-08-16T15:08:40.421Z,30.91
2022-08-16T15:11:08.718Z,30.92
2022-08-16T15:13:37.073Z,30.90
2022-08-16T15:16:05.703Z,30.96
2022-08-16T15:18:34.437Z,31.00
2022-08-16T15:21:05.178Z,31.08
2022-08-16T15:23:36.969Z,31.13
2022-08-16T15:26:09.136Z,31.11
2022-08-16T15:28:38.825Z,31.05
2022-08-16T15:31:13.022Z,30.97
2022-08-16T15:33:50.043Z,30.86
2022-08-16T15:36:21.270Z,30.68
2022-08-16T15:38:56.291Z,30.63
2022-08-16T15:41:43.432Z,30.52
2022-08-16T15:44:18.020Z,30.51
2022-08-16T15:46:55.805Z,30.59
2022-08-16T15:49:34.762Z,30.64
2022-08-16T15:52:17.000Z,30.66
2022-08-16T15:54:53.392Z,30.70
2022-08-16T15:57:25.752Z,30.68
2022-08-16T15:59:56.474Z,30.61
2022-08-16T16:02:40.728Z,30.45
2022-08-16T16:05:10.383Z,30.43
2022-08-16T16:07:55.587Z,30.35
2022-08-16T16:10:29.429Z,30.31
2022-08-16T16:13:00.976Z,30.25
2022-08-16T16:15:38.779Z,30.21
2022-08-16T16:18:09.426Z,30.17
2022-08-16T16:20:47.013Z,30.15
2022-08-16T16:23:17.892Z,30.26
2022-08-16T16:25:46.876Z,30.32
2022-08-16T16:29:08.041Z,30.39
2022-08-16T16:31:09.600Z,30.39
2022-08-16T16:33:43.409Z,30.33
2022-08-16T16:36:16.079Z,30.36
2022-08-16T16:38:47.482Z,30.40
2022-08-16T16:41:22.426Z,30.42
2022-08-16T16:43:53.706Z,30.43
2022-08-16T16:46:42.537Z,30.36
2022-08-16T16:49:14.214Z,30.28
2022-08-16T16:51:44.613Z,30.20
2022-08-16T16:54:13.703Z,30.06
2022-08-16T16:57:00.502Z,30.04
2022-08-16T16:59:28.833Z,30.05
2022-08-16T17:02:41.173Z,30.05
2022-08-16T17:04:48.408Z,30.08
2022-08-16T17:07:17.558Z,30.03
2022-08-16T17:09:48.903Z,30.04
2022-08-16T17:12:24.546Z,29.99
2022-08-16T17:15:07.448Z,29.95
2022-08-16T17:17:59.891Z,29.88
2022-08-16T17:20:26.790Z,29.80
2022-08-16T17:22:56.122Z,29.79
2022-08-16T17:25:36.873Z,29.78
2022-08-16T17:28:58.028Z,29.67
2022-08-16T17:30:58.575Z,29.63
2022-08-16T17:33:28.569Z,29.62
2022-08-16T17:36:08.719Z,29.55
2022-08-16T17:38:43.902Z,29.41
2022-08-16T17:41:26.530Z,29.33
2022-08-16T17:43:54.760Z,29.30
2022-08-16T17:46:50.466Z,29.15
2022-08-16T17:49:11.144Z,29.05
2022-08-16T17:51:40.160Z,29.03
2022-08-16T17:54:08.562Z,28.92
2022-08-16T17:56:48.716Z,28.82
2022-08-16T17:59:19.445Z,28.68
2022-08-16T18:01:47.755Z,28.53
2022-08-16T18:04:49.973Z,28.46
2022-08-16T18:07:05.621Z,28.33
2022-08-16T18:09:33.793Z,28.18
2022-08-16T18:12:41.643Z,28.04
2022-08-16T18:15:11.117Z,27.84
2022-08-16T18:17:39.644Z,27.69
2022-08-16T18:20:33.351Z,27.50
2022-08-16T18:23:23.544Z,27.26
2022-08-16T18:25:57.123Z,27.08
2022-08-16T18:28:27.241Z,26.97
2022-08-16T18:31:01.121Z,26.83
2022-08-16T18:33:38.248Z,26.69
2022-08-16T18:36:20.961Z,26.59
2022-08-16T18:38:50.418Z,26.47
2022-08-16T18:41:19.951Z,26.39
2022-08-16T18:44:22.233Z,26.32
2022-08-16T18:46:36.477Z,26.24
2022-08-16T18:49:11.874Z,26.14
2022-08-16T18:51:46.705Z,26.07
2022-08-16T18:54:18.270Z,25.99
2022-08-16T18:56:56.796Z,25.94
2022-08-16T18:59:30.173Z,25.85
2022-08-16T19:02:04.928Z,25.74
2022-08-16T19:04:47.996Z,25.69
2022-08-16T19:07:31.221Z,25.62
2022-08-16T19:10:03.923Z,25.56
2022-08-16T19:12:38.272Z,25.50
2022-08-16T19:15:26.251Z,25.43
2022-08-16T19:17:54.554Z,25.40
2022-08-16T19:20:25.172Z,25.35
2022-08-16T19:23:10.109Z,25.27
2022-08-16T19:25:48.361Z,25.30
2022-08-16T19:28:51.021Z,25.30
2022-08-16T19:31:16.051Z,25.32
2022-08-16T19:33:47.515Z,25.29
2022-08-16T19:36:31.529Z,25.28
2022-08-16T19:39:05.620Z,25.26
2022-08-16T19:41:36.490Z,25.38
2022-08-16T19:44:05.628Z,25.38
2022-08-16T19:46:34.985Z,25.34
2022-08-16T19:49:03.456Z,25.33
2022-08-16T19:51:31.810Z,25.40
2022-08-16T19:53:59.999Z,25.39
2022-08-16T19:56:28.216Z,25.34
2022-08-16T19:59:18.089Z,25.31
2022-08-16T20:01:46.232Z,25.27
2022-08-16T20:04:14.680Z,25.28
2022-08-16T20:06:42.930Z,25.25
2022-08-16T20:09:14.786Z,25.26
2022-08-16T20:11:45.505Z,25.26
2022-08-16T20:14:24.511Z,25.35
2022-08-16T20:16:55.745Z,25.39
2022-08-16T20:19:40.157Z,25.38
2022-08-16T20:22:42.145Z,25.35
2022-08-16T20:25:11.576Z,25.37
2022-08-16T20:27:41.134Z,25.38
2022-08-16T20:30:11.581Z,25.37
2022-08-16T20:32:40.252Z,25.35
2022-08-16T20:35:11.391Z,25.25
2022-08-16T20:37:43.598Z,25.21
2022-08-16T20:40:28.423Z,25.18
2022-08-16T20:43:07.694Z,25.23
2022-08-16T20:45:37.088Z,25.18
2022-08-16T20:48:06.067Z,25.18
2022-08-16T20:50:35.739Z,25.20
2022-08-16T20:53:04.930Z,25.12
2022-08-16T20:55:35.588Z,25.07
2022-08-16T20:58:07.356Z,24.94
2022-08-16T21:00:35.633Z,24.87
2022-08-16T21:03:12.172Z,24.87
2022-08-16T21:05:40.835Z,24.83
2022-08-16T21:08:28.684Z,24.81
2022-08-16T21:11:00.544Z,24.84
2022-08-16T21:13:30.926Z,24.95
2022-08-16T21:16:04.036Z,24.98
2022-08-16T21:18:32.168Z,25.01
2022-08-16T21:21:00.388Z,25.00
2022-08-16T21:23:28.529Z,25.04
2022-08-16T21:25:59.238Z,25.03
2022-08-16T21:28:40.239Z,24.97
2022-08-16T21:31:15.735Z,24.88
2022-08-16T21:33:45.170Z,24.85
2022-08-16T21:36:34.606Z,24.73
2022-08-16T21:39:07.431Z,24.71
2022-08-16T21:41:38.418Z,24.69
2022-08-16T21:44:06.858Z,24.67
2022-08-16T21:46:35.327Z,24.62
2022-08-16T21:49:05.273Z,24.58
2022-08-16T21:51:34.616Z,24.59
2022-08-16T21:54:03.253Z,24.52
2022-08-16T21:56:31.617Z,24.49
2022-08-16T21:58:59.788Z,24.48
2022-08-16T22:01:29.594Z,24.47
2022-08-16T22:04:01.472Z,24.45
2022-08-16T22:06:46.036Z,24.40
2022-08-16T22:09:18.011Z,24.36
2022-08-16T22:11:46.279Z,24.37
2022-08-16T22:14:14.585Z,24.35
2022-08-16T22:16:43.502Z,24.33
2022-08-16T22:19:13.280Z,24.35
2022-08-16T22:21:41.602Z,24.43
2022-08-16T22:24:10.217Z,24.48
2022-08-16T22:26:43.123Z,24.48
2022-08-16T22:29:13.268Z,24.52
2022-08-16T22:31:44.873Z,24.55
2022-08-16T22:34:14.325Z,24.54
2022-08-16T22:36:42.647Z,24.55
2022-08-16T22:39:13.257Z,24.49
2022-08-16T22:41:43.323Z,24.46
2022-08-16T22:44:13.000Z,24.41
2022-08-16T22:46:41.301Z,24.34
2022-08-16T22:49:10.687Z,24.30
2022-08-16T22:51:40.365Z,24.23
2022-08-16T22:54:33.915Z,24.22
2022-08-16T22:56:57.685Z,24.16
2022-08-16T22:59:26.156Z,24.09
2022-08-16T23:01:54.675Z,24.06
2022-08-16T23:04:24.821Z,24.06
2022-08-16T23:06:53.148Z,23.99
2022-08-16T23:09:21.707Z,24.04
2022-08-16T23:11:50.244Z,23.98
2022-08-16T23:14:18.696Z,23.94
2022-08-16T23:16:47.393Z,23.90
2022-08-16T23:19:16.692Z,23.85
2022-08-16T23:21:46.977Z,23.81
2022-08-16T23:24:20.781Z,23.80
2022-08-16T23:26:49.731Z,23.73
2022-08-16T23:29:23.305Z,23.68
2022-08-16T23:31:58.957Z,23.63
2022-08-16T23:34:28.679Z,23.60
2022-08-16T23:36:57.053Z,23.60
2022-08-16T23:39:25.612Z,23.54
2022-08-16T23:41:53.920Z,23.51
2022-08-16T23:44:55.451Z,23.48
2022-08-16T23:47:10.909Z,23.45
2022-08-16T23:50:00.427Z,23.47
2022-08-16T23:52:42.320Z,23.47
2022-08-16T23:55:17.324Z,23.49
2022-08-16T23:57:46.464Z,23.46
